Time;durP1;ratioP1;P1;durP2;ratioP2;P2;SDS_P1;SDS_P2;PMS_P1;PMS_P2;Temp;Humidity;BMP_temperature;BMP_pressure;BME280_temperature;BME280_humidity;BME280_pressure;Samples;Min_cycle;Max_cycle;Signal;HPM_P1;HPM_P2
2021/05/16 00:01:12;;;;;;;7.73;2.33;;;;;;;10.95;67.89;94586.16;6965644;28;20227;-73
2021/05/16 00:04:35;;;;;;;5.93;2.10;;;;;;;10.96;68.29;94585.16;6926979;28;20344;-73
2021/05/16 00:07:56;;;;;;;5.13;1.87;;;;;;;10.99;67.89;94587.50;6945554;28;20341;-74
2021/05/16 00:11:19;;;;;;;5.73;1.90;;;;;;;11.01;67.74;94590.00;6948555;28;20219;-73
2021/05/16 00:14:39;;;;;;;6.90;1.77;;;;;;;11.04;68.20;94587.88;6956774;28;20260;-73
2021/05/16 00:18:00;;;;;;;5.57;2.00;;;;;;;11.03;67.98;94596.81;6951947;28;20211;-73
2021/05/16 00:21:24;;;;;;;3.27;1.57;;;;;;;11.01;68.12;94587.34;6952884;28;20226;-73
2021/05/16 00:24:44;;;;;;;5.93;1.60;;;;;;;11.00;68.61;94578.53;6958887;28;20218;-73
2021/05/16 00:28:05;;;;;;;5.17;1.80;;;;;;;11.01;68.58;94588.19;6952130;28;20247;-74
2021/05/16 00:31:26;;;;;;;7.80;1.90;;;;;;;11.02;69.11;94576.56;6974422;28;20215;-74
2021/05/16 00:34:48;;;;;;;5.40;1.80;;;;;;;11.03;69.00;94580.03;6962074;28;20579;-74
2021/05/16 00:38:09;;;;;;;3.80;1.67;;;;;;;11.01;69.55;94582.88;6945409;28;20219;-74
2021/05/16 00:41:29;;;;;;;5.27;1.70;;;;;;;10.99;69.60;94571.56;6960950;28;20640;-74
2021/05/16 00:45:07;;;;;;;4.07;1.70;;;;;;;10.92;70.36;94567.84;6973155;28;20219;-74
2021/05/16 00:48:30;;;;;;;45.07;3.03;;;;;;;10.84;70.53;94557.16;6937913;28;20805;-74
2021/05/16 00:51:50;;;;;;;26.10;2.37;;;;;;;10.73;70.32;94547.63;6949761;28;20241;-73
2021/05/16 00:55:12;;;;;;;6.30;3.60;;;;;;;10.64;71.13;94547.72;6959942;28;20223;-73
2021/05/16 00:58:33;;;;;;;6.80;2.50;;;;;;;10.62;71.43;94553.16;6958987;28;20214;-74
2021/05/16 01:01:53;;;;;;;6.63;2.27;;;;;;;10.60;71.67;94546.38;6949366;28;20280;-74
2021/05/16 01:05:17;;;;;;;5.07;1.77;;;;;;;10.57;71.66;94536.88;6974553;28;20245;-73
2021/05/16 01:08:37;;;;;;;2.90;1.60;;;;;;;10.58;71.97;94543.00;6964017;28;20253;-73
2021/05/16 01:12:01;;;;;;;5.43;1.70;;;;;;;10.56;71.69;94543.16;6956034;28;20582;-73
2021/05/16 01:15:24;;;;;;;5.30;1.87;;;;;;;10.57;72.07;94542.19;6956608;28;20244;-74
2021/05/16 01:18:44;;;;;;;4.03;1.77;;;;;;;10.60;71.87;94533.09;6967589;28;20216;-73
2021/05/16 01:22:07;;;;;;;4.00;1.67;;;;;;;10.64;72.42;94537.94;6953936;28;20716;-74
2021/05/16 01:25:31;;;;;;;4.73;2.07;;;;;;;10.67;72.72;94534.13;6963367;28;20211;-73
2021/05/16 01:28:51;;;;;;;5.47;1.77;;;;;;;10.69;72.69;94533.00;6958196;28;20263;-73
2021/05/16 01:32:12;;;;;;;4.50;1.53;;;;;;;10.70;72.37;94533.84;6936740;28;20224;-74
2021/05/16 01:35:36;;;;;;;4.63;1.67;;;;;;;10.72;72.76;94539.81;6971006;28;20214;-73
2021/05/16 01:38:56;;;;;;;8.40;2.00;;;;;;;10.73;72.70;94541.47;6960116;28;20237;-73
2021/05/16 01:42:21;;;;;;;6.87;2.07;;;;;;;10.76;72.73;94531.38;6959365;28;20241;-73
2021/05/16 01:45:45;;;;;;;4.87;1.57;;;;;;;10.79;72.26;94526.75;6956783;28;20219;-73
2021/05/16 01:49:05;;;;;;;4.67;1.87;;;;;;;10.82;72.39;94531.75;6978176;28;20225;-74
2021/05/16 01:52:32;;;;;;;6.83;2.13;;;;;;;10.87;72.41;94534.75;6962299;28;20294;-73
2021/05/16 01:55:55;;;;;;;6.10;1.80;;;;;;;10.90;72.67;94540.63;6950140;28;20230;-73
2021/05/16 01:59:17;;;;;;;6.13;1.77;;;;;;;10.93;72.56;94548.28;6945066;28;20228;-72
2021/05/16 02:02:38;;;;;;;4.47;1.83;;;;;;;10.94;72.57;94541.13;6969687;28;20230;-73
2021/05/16 02:05:59;;;;;;;5.37;1.90;;;;;;;10.94;72.12;94546.44;6951101;28;20688;-73
2021/05/16 02:09:23;;;;;;;6.67;1.97;;;;;;;10.94;72.28;94541.97;6960905;28;20905;-73
2021/05/16 02:12:44;;;;;;;7.23;2.23;;;;;;;10.97;71.86;94543.47;6947812;28;20222;-73
2021/05/16 02:16:05;;;;;;;6.47;2.10;;;;;;;10.99;71.86;94542.34;6956123;28;20214;-73
2021/05/16 02:19:26;;;;;;;5.80;2.20;;;;;;;11.00;72.01;94546.66;6932028;28;20223;-73
2021/05/16 02:22:46;;;;;;;4.90;1.83;;;;;;;11.02;71.85;94547.31;6944915;28;20225;-73
2021/05/16 02:26:07;;;;;;;5.93;1.97;;;;;;;11.02;71.86;94543.84;6952371;28;20690;-74
2021/05/16 02:29:30;;;;;;;7.90;2.33;;;;;;;11.04;72.45;94536.56;6965076;28;20246;-73
2021/05/16 02:32:51;;;;;;;5.93;1.70;;;;;;;11.05;72.73;94544.38;6960061;28;20285;-73
2021/05/16 02:36:14;;;;;;;5.07;2.27;;;;;;;11.02;72.60;94533.22;6975566;28;20219;-73
2021/05/16 02:39:34;;;;;;;5.87;2.37;;;;;;;10.96;72.64;94529.38;6959351;28;20298;-73
2021/05/16 02:42:55;;;;;;;7.33;2.07;;;;;;;10.88;73.18;94531.97;6956187;28;20226;-73
2021/05/16 02:46:15;;;;;;;7.37;2.43;;;;;;;10.87;73.59;94530.28;6953555;28;20229;-73
2021/05/16 02:49:35;;;;;;;10.90;2.17;;;;;;;10.84;73.74;94522.66;6959712;28;20777;-73
2021/05/16 02:52:56;;;;;;;3.03;1.53;;;;;;;10.85;74.17;94520.81;6966989;28;20228;-73
2021/05/16 02:56:20;;;;;;;6.83;2.20;;;;;;;10.82;74.25;94511.34;6953410;28;20302;-74
2021/05/16 02:59:40;;;;;;;5.23;2.13;;;;;;;10.83;74.23;94517.47;6941136;28;20982;-73
2021/05/16 03:03:00;;;;;;;4.83;2.17;;;;;;;10.85;74.35;94513.69;6964914;28;20221;-74
2021/05/16 03:06:21;;;;;;;4.13;2.33;;;;;;;10.87;74.00;94508.22;6949976;28;21026;-74
2021/05/16 03:09:44;;;;;;;5.33;2.73;;;;;;;10.84;73.54;94504.06;6959606;28;20246;-72
2021/05/16 03:13:05;;;;;;;7.83;2.23;;;;;;;10.79;73.61;94502.84;6949797;28;20239;-73
2021/05/16 03:16:26;;;;;;;2.40;1.90;;;;;;;10.74;73.70;94506.81;6963015;28;20219;-73
2021/05/16 03:19:46;;;;;;;2.70;1.67;;;;;;;10.68;73.62;94504.78;6943824;28;20275;-72
2021/05/16 03:23:07;;;;;;;3.23;1.30;;;;;;;10.62;73.84;94497.41;6962923;28;20215;-73
2021/05/16 03:26:29;;;;;;;2.83;1.57;;;;;;;10.55;73.32;94501.69;6958988;28;20263;-73
2021/05/16 03:29:50;;;;;;;4.13;1.50;;;;;;;10.51;73.54;94496.84;6966337;28;20318;-74
2021/05/16 03:33:10;;;;;;;6.60;1.87;;;;;;;10.49;73.37;94504.97;6952182;28;20230;-73
2021/05/16 03:36:33;;;;;;;5.67;2.47;;;;;;;10.44;72.93;94507.25;6976350;28;20229;-73
2021/05/16 03:39:53;;;;;;;7.37;1.80;;;;;;;10.43;72.95;94504.72;6959288;28;20212;-73
2021/05/16 03:43:18;;;;;;;4.37;1.70;;;;;;;10.40;72.81;94505.06;6954011;28;20268;-72
2021/05/16 03:46:38;;;;;;;5.93;1.67;;;;;;;10.36;72.45;94509.84;6973289;28;20225;-73
2021/05/16 03:49:59;;;;;;;7.83;2.00;;;;;;;10.33;72.06;94503.00;6961364;28;20223;-72
2021/05/16 03:53:19;;;;;;;7.40;1.97;;;;;;;10.35;71.76;94509.97;6974956;28;20279;-73
2021/05/16 03:56:40;;;;;;;5.83;1.67;;;;;;;10.37;72.12;94505.34;6972538;28;20229;-73
2021/05/16 04:00:01;;;;;;;6.43;1.87;;;;;;;10.38;72.18;94505.19;6964244;28;20238;-73
2021/05/16 04:03:21;;;;;;;4.77;1.80;;;;;;;10.38;72.10;94509.66;6946232;28;20234;-73
2021/05/16 04:06:42;;;;;;;6.33;1.80;;;;;;;10.38;71.71;94509.66;6969912;28;20221;-72
2021/05/16 04:10:04;;;;;;;5.87;1.83;;;;;;;10.41;71.89;94517.34;6971236;28;20286;-73
2021/05/16 04:13:24;;;;;;;8.20;2.07;;;;;;;10.44;71.79;94509.06;6970163;28;20855;-73
2021/05/16 04:16:47;;;;;;;8.00;2.40;;;;;;;10.46;72.31;94504.44;6965526;28;20245;-73
2021/05/16 04:20:08;;;;;;;7.83;1.93;;;;;;;10.51;72.28;94502.16;6960602;28;21800;-73
2021/05/16 04:23:32;;;;;;;6.97;1.50;;;;;;;10.54;72.02;94491.22;6951507;28;20206;-73
2021/05/16 04:26:52;;;;;;;5.13;1.70;;;;;;;10.55;72.13;94496.38;6955007;28;20232;-74
2021/05/16 04:30:13;;;;;;;8.77;1.87;;;;;;;10.56;72.31;94499.88;6962501;28;20221;-74
2021/05/16 04:33:33;;;;;;;4.70;2.00;;;;;;;10.58;72.23;94496.06;6953566;28;20707;-73
2021/05/16 04:36:54;;;;;;;3.07;1.80;;;;;;;10.59;72.72;94497.75;6961713;28;20230;-73
2021/05/16 04:40:17;;;;;;;5.07;1.90;;;;;;;10.58;72.70;94498.72;6974674;28;20217;-73
2021/05/16 04:43:38;;;;;;;4.43;1.70;;;;;;;10.61;73.11;94495.75;6977313;28;20274;-73
2021/05/16 04:46:58;;;;;;;3.67;1.63;;;;;;;10.65;73.14;94497.13;6961141;28;20256;-73
2021/05/16 04:50:19;;;;;;;6.63;1.60;;;;;;;10.71;73.92;94498.34;6943187;28;20698;-73
2021/05/16 04:53:41;;;;;;;3.53;1.40;;;;;;;10.74;74.04;94506.81;6946972;28;20298;-73
2021/05/16 04:57:03;;;;;;;6.07;1.70;;;;;;;10.80;74.18;94512.50;6959123;28;20222;-73
2021/05/16 05:00:24;;;;;;;7.10;2.00;;;;;;;10.80;74.14;94505.34;6961827;28;20281;-74
2021/05/16 05:03:47;;;;;;;4.07;1.77;;;;;;;10.86;74.42;94506.56;6958159;28;20207;-74
2021/05/16 05:07:09;;;;;;;5.73;1.80;;;;;;;10.95;74.51;94508.28;6943659;28;20918;-73
2021/05/16 05:10:30;;;;;;;3.97;1.53;;;;;;;11.00;74.69;94508.63;6971346;28;20229;-73
2021/05/16 05:13:53;;;;;;;3.33;1.60;;;;;;;11.02;73.74;94507.47;6932600;28;20217;-73
2021/05/16 05:17:16;;;;;;;5.70;2.00;;;;;;;10.92;74.37;94508.56;6933389;28;20234;-73
2021/05/16 05:20:37;;;;;;;4.70;2.03;;;;;;;10.83;74.09;94502.38;6946672;28;20258;-73
2021/05/16 05:23:57;;;;;;;5.67;2.50;;;;;;;10.83;74.84;94507.69;6956120;28;20215;-74
2021/05/16 05:27:20;;;;;;;6.33;2.83;;;;;;;10.89;75.18;94514.22;6955706;28;20219;-73
2021/05/16 05:30:40;;;;;;;5.43;3.10;;;;;;;10.93;75.84;94505.75;6947996;28;20231;-74
2021/05/16 05:34:01;;;;;;;4.33;3.00;;;;;;;10.99;75.47;94513.13;6946134;28;20230;-73
2021/05/16 05:37:21;;;;;;;9.60;6.43;;;;;;;11.03;75.44;94509.16;6946452;28;20222;-72
2021/05/16 05:40:42;;;;;;;8.77;3.70;;;;;;;11.09;75.71;94513.84;6947325;28;20235;-73
2021/05/16 05:44:02;;;;;;;4.53;3.00;;;;;;;11.11;75.61;94514.53;6943169;28;20257;-73
2021/05/16 05:47:23;;;;;;;5.47;2.87;;;;;;;11.17;75.46;94513.88;6941346;28;20219;-74
2021/05/16 05:50:43;;;;;;;7.93;6.53;;;;;;;11.23;75.28;94507.09;6942674;28;20234;-73
2021/05/16 05:54:06;;;;;;;9.97;6.73;;;;;;;11.33;75.92;94514.97;6944282;28;20272;-73
2021/05/16 05:57:26;;;;;;;10.20;6.10;;;;;;;11.39;75.62;94509.00;6951280;28;20973;-73
2021/05/16 06:00:47;;;;;;;17.23;15.10;;;;;;;11.47;75.72;94503.72;6952966;28;20224;-74
2021/05/16 06:04:10;;;;;;;9.37;5.90;;;;;;;11.51;75.42;94500.59;6940908;28;20681;-73
2021/05/16 06:07:35;;;;;;;6.03;2.43;;;;;;;11.53;75.07;94500.44;6925161;28;20226;-73
2021/05/16 06:10:55;;;;;;;6.03;2.80;;;;;;;11.53;74.85;94500.44;6916325;28;20230;-74
2021/05/16 06:14:16;;;;;;;6.00;3.43;;;;;;;11.58;74.98;94514.06;6948751;28;20223;-73
2021/05/16 06:17:39;;;;;;;6.43;3.20;;;;;;;11.68;75.05;94513.94;6912374;28;20215;-74
2021/05/16 06:20:59;;;;;;;3.43;2.43;;;;;;;11.74;75.34;94510.69;6937772;28;20227;-74
2021/05/16 06:24:20;;;;;;;5.13;2.20;;;;;;;11.80;75.46;94502.06;6950960;28;20223;-73
2021/05/16 06:27:42;;;;;;;4.73;2.87;;;;;;;11.85;75.33;94505.91;6962276;28;20274;-73
2021/05/16 06:31:03;;;;;;;6.17;1.97;;;;;;;11.88;75.02;94510.88;6961931;28;20271;-75
2021/05/16 06:34:23;;;;;;;4.53;1.80;;;;;;;11.89;74.98;94509.91;6953438;28;20231;-74
2021/05/16 06:37:47;;;;;;;7.77;1.80;;;;;;;11.95;75.00;94514.59;6947543;28;20229;-74
2021/05/16 06:41:10;;;;;;;3.77;1.80;;;;;;;12.01;75.33;94518.41;6952784;28;20293;-74
2021/05/16 06:44:30;;;;;;;4.03;2.03;;;;;;;12.04;75.23;94510.94;6958269;28;20212;-73
2021/05/16 06:47:51;;;;;;;5.57;2.00;;;;;;;12.07;75.23;94516.94;6940079;28;20261;-74
2021/05/16 06:51:12;;;;;;;3.60;1.83;;;;;;;12.12;74.67;94511.97;6941433;28;20847;-74
2021/05/16 06:54:33;;;;;;;6.57;2.27;;;;;;;12.11;74.89;94519.13;6960326;28;20214;-75
2021/05/16 06:57:53;;;;;;;2.87;1.80;;;;;;;12.07;74.68;94507.13;6951788;28;20216;-75
2021/05/16 07:01:13;;;;;;;3.63;1.87;;;;;;;12.10;75.23;94504.13;6956609;28;20789;-75
2021/05/16 07:04:34;;;;;;;3.40;1.97;;;;;;;12.14;75.13;94510.78;6940486;28;20291;-75
2021/05/16 07:07:57;;;;;;;7.57;3.17;;;;;;;12.12;74.91;94510.09;6958400;28;20230;-75
2021/05/16 07:11:18;;;;;;;5.67;2.20;;;;;;;12.16;75.29;94494.66;6949251;28;20655;-76
2021/05/16 07:14:38;;;;;;;9.60;5.17;;;;;;;12.25;75.45;94499.00;6970882;28;20690;-75
2021/05/16 07:17:59;;;;;;;8.70;6.87;;;;;;;12.35;75.67;94495.19;6945350;28;20675;-73
2021/05/16 07:21:20;;;;;;;11.03;9.40;;;;;;;12.43;75.71;94507.66;6943581;28;20215;-74
2021/05/16 07:24:41;;;;;;;10.00;7.40;;;;;;;12.55;75.14;94502.84;6958717;28;20215;-74
2021/05/16 07:28:01;;;;;;;5.63;3.40;;;;;;;12.65;73.38;94506.19;6963810;28;20229;-75
2021/05/16 07:31:22;;;;;;;8.97;3.53;;;;;;;12.75;71.81;94505.00;6934893;28;20306;-74
2021/05/16 07:34:45;;;;;;;7.17;3.10;;;;;;;12.88;70.17;94505.31;6922720;28;20224;-74
2021/05/16 07:38:05;;;;;;;4.73;2.57;;;;;;;13.07;68.80;94498.81;6921133;28;20303;-74
2021/05/16 07:41:26;;;;;;;5.70;2.13;;;;;;;13.30;66.72;94499.78;6924600;28;20223;-74
2021/05/16 07:44:46;;;;;;;4.73;2.00;;;;;;;13.51;65.21;94493.06;6946418;28;20266;-74
2021/05/16 07:48:09;;;;;;;5.80;2.20;;;;;;;13.74;63.96;94481.44;6960233;28;20720;-74
2021/05/16 07:51:30;;;;;;;4.23;2.10;;;;;;;14.00;64.15;94486.50;6971480;28;20241;-74
2021/05/16 07:54:53;;;;;;;3.03;1.63;;;;;;;14.33;64.09;94494.31;6961460;28;20629;-75
2021/05/16 07:58:16;;;;;;;3.67;1.60;;;;;;;14.63;62.20;94490.78;6925691;28;20233;-74
2021/05/16 08:01:39;;;;;;;4.57;1.80;;;;;;;14.98;61.86;94484.78;6926428;28;20234;-75
2021/05/16 08:04:59;;;;;;;6.13;1.80;;;;;;;15.40;61.95;94478.81;6920885;28;20585;-74
2021/05/16 08:08:25;;;;;;;4.00;1.50;;;;;;;15.83;62.04;94473.69;6929836;28;20703;-75
2021/05/16 08:11:47;;;;;;;3.23;1.67;;;;;;;16.19;60.04;94452.28;6945396;28;20227;-77
2021/05/16 08:15:08;;;;;;;2.67;1.50;;;;;;;16.52;59.73;94456.09;6941839;28;20220;-75
2021/05/16 08:18:31;;;;;;;7.53;1.70;;;;;;;16.68;57.18;94452.38;6947145;28;20226;-75
2021/05/16 08:21:54;;;;;;;1.97;1.30;;;;;;;16.84;56.59;94445.91;6932481;28;20258;-77
2021/05/16 08:25:14;;;;;;;3.90;1.47;;;;;;;16.89;55.31;94444.31;6948901;28;20215;-76
2021/05/16 08:28:37;;;;;;;3.60;1.70;;;;;;;16.97;54.91;94437.97;6945776;28;20230;-76
2021/05/16 08:31:57;;;;;;;4.17;1.40;;;;;;;16.96;54.12;94429.09;6934926;28;20230;-76
2021/05/16 08:35:18;;;;;;;6.90;1.77;;;;;;;17.09;55.41;94433.72;6941299;28;20310;-74
2021/05/16 08:38:41;;;;;;;2.97;1.60;;;;;;;17.30;53.41;94430.16;6967464;28;20215;-76
2021/05/16 08:42:01;;;;;;;2.07;1.30;;;;;;;17.50;53.12;94426.53;6952835;28;20242;-77
2021/05/16 08:45:24;;;;;;;2.53;1.40;;;;;;;17.66;52.64;94414.69;6959304;28;20216;-77
2021/05/16 08:48:45;;;;;;;5.67;1.40;;;;;;;17.81;52.46;94420.72;6950020;28;20240;-76
2021/05/16 08:52:08;;;;;;;2.73;1.20;;;;;;;17.83;51.15;94421.38;6941126;28;20231;-76
2021/05/16 08:55:31;;;;;;;3.33;1.67;;;;;;;17.95;51.57;94419.78;6944207;28;20340;-75
2021/05/16 08:58:51;;;;;;;3.03;1.40;;;;;;;18.24;51.48;94415.09;6946053;28;20644;-76
2021/05/16 09:02:12;;;;;;;2.67;1.30;;;;;;;18.47;49.88;94414.72;6951404;28;20816;-77
2021/05/16 09:05:55;;;;;;;3.00;1.27;;;;;;;18.84;49.70;94395.34;6954902;28;20248;-77
2021/05/16 09:09:33;;;;;;;2.60;1.20;;;;;;;19.20;48.93;94386.84;6960601;28;20229;-75
2021/05/16 09:13:07;;;;;;;2.43;1.30;;;;;;;19.46;47.86;94394.88;6959202;28;20313;-77
2021/05/16 09:16:27;;;;;;;2.67;1.23;;;;;;;19.43;46.57;94391.75;6965412;28;20221;-75
2021/05/16 09:19:51;;;;;;;2.00;1.07;;;;;;;19.15;45.45;94389.31;6955459;28;20237;-74
2021/05/16 09:23:11;;;;;;;3.17;1.43;;;;;;;18.77;46.53;94379.19;6931559;28;20296;-76
2021/05/16 09:26:56;;;;;;;2.73;1.17;;;;;;;18.49;45.84;94385.78;6955633;28;20229;-76
2021/05/16 09:30:19;;;;;;;3.17;1.20;;;;;;;18.33;46.13;94387.84;6969015;28;20253;-78
2021/05/16 09:33:40;;;;;;;4.47;1.20;;;;;;;18.18;46.10;94372.91;6961891;28;20218;-76
2021/05/16 09:37:04;;;;;;;2.50;1.33;;;;;;;18.08;46.78;94377.84;6932826;28;20220;-79
2021/05/16 09:40:37;;;;;;;3.03;1.33;;;;;;;18.07;48.09;94378.88;6950665;28;20223;-78
2021/05/16 09:44:02;;;;;;;3.37;1.87;;;;;;;18.07;48.89;94379.72;6955834;28;20208;-78
2021/05/16 09:47:30;;;;;;;4.80;1.33;;;;;;;17.93;48.19;94383.41;6949961;28;20238;-77
2021/05/16 09:51:21;;;;;;;2.67;1.30;;;;;;;17.82;48.55;94389.34;6955067;28;20222;-77
2021/05/16 09:54:58;;;;;;;3.90;1.17;;;;;;;17.60;48.26;94388.66;6957488;28;20221;-77
2021/05/16 09:58:18;;;;;;;2.93;1.03;;;;;;;17.30;48.75;94385.34;6952729;28;20208;-77
2021/05/16 10:01:41;;;;;;;3.27;1.50;;;;;;;17.14;50.17;94380.31;6943377;28;20272;-76
2021/05/16 10:05:06;;;;;;;5.23;1.50;;;;;;;17.00;51.10;94384.75;6966058;28;20267;-77
2021/05/16 10:08:28;;;;;;;2.80;1.43;;;;;;;16.90;52.00;94375.41;6958483;28;20219;-74
2021/05/16 10:11:48;;;;;;;3.73;1.40;;;;;;;16.74;52.54;94389.94;6935228;28;20273;-77
2021/05/16 10:15:17;;;;;;;4.13;1.60;;;;;;;16.65;55.17;94388.41;6973655;28;20207;-77
2021/05/16 10:18:38;;;;;;;6.53;1.60;;;;;;;16.58;56.98;94379.47;6950404;28;20645;-77
2021/05/16 10:22:07;;;;;;;2.33;1.30;;;;;;;16.57;58.03;94384.00;6951332;28;20227;-75
2021/05/16 10:25:47;;;;;;;3.37;1.50;;;;;;;16.55;56.87;94383.34;6956193;28;20260;-76
2021/05/16 10:29:15;;;;;;;7.63;2.40;;;;;;;16.43;56.84;94376.03;6959117;28;20651;-77
2021/05/16 10:32:38;;;;;;;4.00;1.50;;;;;;;16.33;57.84;94384.41;6955847;28;20214;-78
2021/05/16 10:35:59;;;;;;;3.37;1.40;;;;;;;16.27;58.47;94374.47;6970294;28;20271;-74
2021/05/16 10:39:43;;;;;;;3.03;1.60;;;;;;;16.25;60.82;94377.31;6941046;28;20218;-77
2021/05/16 10:43:05;;;;;;;5.40;1.80;;;;;;;16.25;61.39;94371.13;6954404;28;20219;-78
2021/05/16 10:46:41;;;;;;;4.77;1.60;;;;;;;16.28;61.58;94366.22;6957959;28;20212;-77
2021/05/16 10:50:07;;;;;;;2.80;1.50;;;;;;;16.29;62.84;94361.72;6967010;28;20226;-77
2021/05/16 10:53:36;;;;;;;3.60;1.47;;;;;;;16.27;62.51;94355.69;6943213;28;20238;-78
2021/05/16 10:57:20;;;;;;;4.30;2.00;;;;;;;16.22;63.34;94347.41;6963035;28;20214;-78
2021/05/16 11:00:43;;;;;;;2.00;1.20;;;;;;;16.18;63.84;94352.34;6944754;28;20211;-77
2021/05/16 11:04:05;;;;;;;2.63;1.30;;;;;;;16.14;64.48;94348.38;6940130;28;20204;-78
2021/05/16 11:07:36;;;;;;;3.57;1.60;;;;;;;16.06;63.55;94348.50;6949215;28;20216;-78
2021/05/16 11:10:57;;;;;;;6.20;1.63;;;;;;;15.97;63.14;94344.28;6942858;28;20249;-78
2021/05/16 11:14:33;;;;;;;4.80;1.80;;;;;;;15.89;63.92;94360.50;6954090;28;20208;-78
2021/05/16 11:17:54;;;;;;;4.33;1.50;;;;;;;15.82;64.60;94365.78;6952306;28;20297;-78
2021/05/16 11:21:19;;;;;;;3.47;1.50;;;;;;;15.76;65.21;94366.50;6940894;28;20223;-77
2021/05/16 11:24:53;;;;;;;3.60;1.90;;;;;;;15.72;65.57;94353.69;6939144;28;20238;-78
2021/05/16 11:28:13;;;;;;;2.67;1.40;;;;;;;15.64;65.38;94343.13;6949821;28;20224;-77
2021/05/16 11:31:37;;;;;;;4.33;1.43;;;;;;;15.47;64.68;94350.50;6957986;28;20253;-77
2021/05/16 11:35:21;;;;;;;2.70;1.30;;;;;;;15.36;63.72;94343.78;6935115;28;20231;-77
2021/05/16 11:38:48;;;;;;;2.23;1.10;;;;;;;15.18;62.66;94343.38;6923417;28;20382;-77
2021/05/16 11:42:09;;;;;;;3.67;1.10;;;;;;;14.98;62.52;94360.97;6939105;28;20250;-75
2021/05/16 11:45:33;;;;;;;3.03;1.10;;;;;;;14.82;62.62;94339.78;6953564;28;20202;-76
2021/05/16 11:48:53;;;;;;;2.13;1.20;;;;;;;14.61;62.35;94353.84;6925777;28;20220;-77
2021/05/16 11:52:16;;;;;;;1.47;1.10;;;;;;;14.48;64.03;94365.19;6926065;28;20216;-77
2021/05/16 11:55:39;;;;;;;2.40;0.90;;;;;;;14.46;64.25;94364.53;6946202;28;20248;-77
2021/05/16 11:59:00;;;;;;;1.27;0.60;;;;;;;14.43;63.91;94359.56;6943032;28;20207;-78
2021/05/16 12:02:21;;;;;;;2.10;0.60;;;;;;;14.43;64.29;94359.56;6948096;28;22220;-78
2021/05/16 12:05:43;;;;;;;1.60;0.93;;;;;;;14.50;64.89;94357.78;6955078;28;20735;-78
2021/05/16 12:09:12;;;;;;;4.13;1.20;;;;;;;14.61;64.89;94345.84;6949705;28;20219;-77
2021/05/16 12:12:32;;;;;;;2.77;0.90;;;;;;;14.73;65.53;94336.38;6941848;28;20214;-76
2021/05/16 12:16:10;;;;;;;2.43;0.90;;;;;;;14.78;65.36;94325.97;6951137;28;20245;-78
2021/05/16 12:19:35;;;;;;;1.33;0.97;;;;;;;14.93;65.36;94317.94;6941780;28;20291;-78
2021/05/16 12:22:58;;;;;;;1.67;1.23;;;;;;;15.13;65.71;94320.88;6958409;28;20230;-78
2021/05/16 12:26:21;;;;;;;0.90;0.80;;;;;;;15.30;65.06;94309.75;6950682;28;20277;-75
2021/05/16 12:29:47;;;;;;;2.47;1.20;;;;;;;15.32;63.61;94310.41;6931156;28;20224;-75
2021/05/16 12:33:10;;;;;;;2.00;1.70;;;;;;;15.25;63.84;94320.19;6931317;28;20220;-75
2021/05/16 12:36:53;;;;;;;2.73;1.03;;;;;;;15.06;63.12;94323.44;6935377;28;20273;-78
2021/05/16 12:40:24;;;;;;;7.07;3.97;;;;;;;14.88;62.94;94323.84;6951055;28;20234;-77
2021/05/16 12:44:12;;;;;;;7.80;6.90;;;;;;;14.79;62.85;94329.44;6945952;28;20249;-78
2021/05/16 12:47:35;;;;;;;2.10;1.33;;;;;;;14.63;63.23;94319.78;6956389;28;20222;-76
2021/05/16 12:51:02;;;;;;;3.77;1.20;;;;;;;14.50;64.31;94336.44;6948120;28;20337;-74
2021/05/16 12:54:28;;;;;;;3.57;1.10;;;;;;;14.44;66.29;94326.47;6926859;28;20216;-76
2021/05/16 12:57:56;;;;;;;2.40;1.70;;;;;;;14.37;65.55;94322.88;6930236;28;20281;-77
2021/05/16 13:01:24;;;;;;;2.73;0.90;;;;;;;14.32;66.14;94325.22;6937746;28;20242;-76
2021/05/16 13:04:44;;;;;;;1.73;0.80;;;;;;;14.36;68.12;94331.03;6930005;28;20217;-77
2021/05/16 13:08:05;;;;;;;2.77;0.87;;;;;;;14.31;67.78;94344.09;6945220;28;20228;-77
2021/05/16 13:11:28;;;;;;;1.67;0.97;;;;;;;14.24;67.86;94353.81;6941506;28;20232;-74
2021/05/16 13:14:55;;;;;;;2.00;1.03;;;;;;;14.25;68.90;94352.81;6927603;28;20212;-74
2021/05/16 13:18:25;;;;;;;3.13;0.80;;;;;;;14.27;67.47;94329.44;6942722;28;20228;-75
2021/05/16 13:21:48;;;;;;;1.97;0.80;;;;;;;14.30;66.56;94343.25;6939786;28;20212;-75
2021/05/16 13:25:11;;;;;;;1.23;0.70;;;;;;;14.35;66.22;94334.69;6952119;28;20223;-75
2021/05/16 13:28:31;;;;;;;0.50;0.50;;;;;;;14.43;66.66;94337.34;6947358;28;20214;-76
2021/05/16 13:31:52;;;;;;;2.33;0.70;;;;;;;14.46;66.50;94335.13;6946368;28;20235;-75
2021/05/16 13:35:13;;;;;;;2.00;1.20;;;;;;;14.46;66.19;94331.63;6935581;28;20296;-76
2021/05/16 13:38:34;;;;;;;0.70;0.53;;;;;;;14.45;67.20;94333.47;6943902;28;20301;-76
2021/05/16 13:41:59;;;;;;;0.43;0.40;;;;;;;14.44;67.15;94334.47;6947135;28;20208;-76
2021/05/16 13:45:22;;;;;;;1.00;0.63;;;;;;;14.43;66.63;94327.50;6950149;28;20295;-76
2021/05/16 13:48:47;;;;;;;3.30;1.20;;;;;;;14.42;67.20;94308.97;6946967;28;20691;-77
2021/05/16 13:52:10;;;;;;;2.13;0.90;;;;;;;14.42;66.68;94303.63;6926813;28;20606;-77
2021/05/16 13:55:30;;;;;;;2.20;1.70;;;;;;;14.36;66.37;94285.63;6951702;28;20219;-76
2021/05/16 13:58:51;;;;;;;2.70;1.60;;;;;;;14.40;67.64;94297.63;6930178;28;20224;-76
2021/05/16 14:02:13;;;;;;;1.97;1.27;;;;;;;14.45;67.02;94304.09;6953419;28;20330;-75
2021/05/16 14:05:36;;;;;;;2.87;0.93;;;;;;;14.46;66.80;94308.44;6943232;28;20248;-76
2021/05/16 14:08:57;;;;;;;4.83;1.00;;;;;;;14.47;67.65;94323.44;6958764;28;20311;-74
2021/05/16 14:12:20;;;;;;;2.53;1.30;;;;;;;14.49;67.78;94326.75;6977582;28;20234;-73
2021/05/16 14:15:40;;;;;;;10.47;6.93;;;;;;;14.48;67.70;94305.59;6970782;28;20597;-72
2021/05/16 14:19:01;;;;;;;4.57;3.27;;;;;;;14.44;67.54;94298.91;6945602;28;20680;-73
2021/05/16 14:22:21;;;;;;;7.03;5.73;;;;;;;14.43;67.72;94302.63;6953708;28;20259;-72
2021/05/16 14:25:42;;;;;;;1.53;0.90;;;;;;;14.44;67.80;94302.41;6967490;28;20215;-72
2021/05/16 14:29:03;;;;;;;2.47;2.23;;;;;;;14.39;67.71;94302.13;6958389;28;20617;-72
2021/05/16 14:32:24;;;;;;;9.77;8.87;;;;;;;14.33;67.43;94296.69;6945209;28;20232;-73
2021/05/16 14:35:46;;;;;;;3.77;3.40;;;;;;;14.28;67.85;94289.22;6963124;28;20226;-73
2021/05/16 14:39:07;;;;;;;3.27;2.20;;;;;;;14.28;67.55;94285.72;6955795;28;20218;-73
2021/05/16 14:42:28;;;;;;;1.97;1.50;;;;;;;14.32;67.23;94290.50;6954631;28;20249;-72
2021/05/16 14:45:51;;;;;;;3.07;1.87;;;;;;;14.33;68.38;94289.50;6961008;28;20249;-72
2021/05/16 14:49:13;;;;;;;2.33;1.10;;;;;;;14.35;69.01;94275.94;6955352;28;20883;-72
2021/05/16 14:52:34;;;;;;;2.93;1.80;;;;;;;14.39;68.44;94266.59;6926750;28;20219;-72
2021/05/16 14:55:54;;;;;;;3.87;2.93;;;;;;;14.40;68.92;94265.59;6968338;28;20276;-73
2021/05/16 14:59:15;;;;;;;3.20;2.90;;;;;;;14.46;69.01;94264.84;6938777;28;20215;-72
2021/05/16 15:02:35;;;;;;;1.10;1.00;;;;;;;14.50;67.89;94258.97;6952246;28;20223;-72
2021/05/16 15:05:58;;;;;;;1.63;1.03;;;;;;;14.50;67.73;94283.00;6959441;28;20714;-72
2021/05/16 15:09:19;;;;;;;1.70;1.00;;;;;;;14.49;68.50;94286.69;6965242;28;20223;-71
2021/05/16 15:12:42;;;;;;;1.87;0.90;;;;;;;14.47;67.92;94282.53;6976532;28;20298;-72
2021/05/16 15:16:03;;;;;;;2.40;1.47;;;;;;;14.45;68.64;94279.22;6959061;28;20223;-73
2021/05/16 15:19:23;;;;;;;3.30;1.00;;;;;;;14.45;69.32;94271.19;6961321;28;20274;-71
2021/05/16 15:22:43;;;;;;;1.87;0.97;;;;;;;14.46;69.79;94265.69;6955013;28;20331;-71
2021/05/16 15:26:04;;;;;;;1.70;1.57;;;;;;;14.43;68.54;94260.72;6948947;28;20228;-71
2021/05/16 15:29:26;;;;;;;0.90;0.77;;;;;;;14.39;68.27;94253.22;6955023;28;20216;-72
2021/05/16 15:32:46;;;;;;;3.20;1.10;;;;;;;14.36;68.34;94240.22;6948778;28;20215;-72
2021/05/16 15:36:07;;;;;;;2.30;0.93;;;;;;;14.33;68.22;94243.28;6974227;28;20211;-71
2021/05/16 15:39:27;;;;;;;2.83;0.70;;;;;;;14.31;69.45;94240.78;6933128;28;20206;-72
2021/05/16 15:42:48;;;;;;;1.70;1.10;;;;;;;14.38;69.92;94248.94;6967757;28;20931;-71
2021/05/16 15:46:08;;;;;;;1.20;0.97;;;;;;;14.45;70.11;94249.84;6953284;28;20770;-71
2021/05/16 15:49:29;;;;;;;2.40;0.90;;;;;;;14.51;70.73;94247.28;6924086;28;20247;-71
2021/05/16 15:52:52;;;;;;;1.53;0.97;;;;;;;14.51;70.37;94233.91;6948230;28;20211;-72
2021/05/16 15:56:17;;;;;;;0.97;0.97;;;;;;;14.44;70.00;94246.34;6935941;28;20223;-75